Portada
METAR-TAF:

METAR-TAF

Aeroports :

Hartness State Airport

Springfield, Vermont, Estats Units d'Amèrica

latitud: 43-20-33N, longitud: 072-31-18W, altitud: 175 m

Observació

L'informe es va fer fa 51 minuts, a les 21:54 UTC
Vent 7 kt del Sud
Temperatura 22°C
Humitat 29%
Pressió 1023 hPa
Visibilitat: 16.1 km
Cel clar

METAR: KVSF 242154Z AUTO 18007KT 10SM CLR 22/03 A3020 RMK AO2 SLP230 T02170028

Hora: 18:45 (22:45 UTC)


TAF: manca

Observacions i pronòstics meteorològics de més de 4000 aeroports (METAR i TAF).

Les estacions disponibles són els punts grocs i vermells al mapa.

Posi el ratolí al punt desitjat per veure el nom de l'estació.

Feu clic per veure les observacions i els pronòstics meteorològics.

Per canviar el mapa: feu clic els botons verds amb una creu de color negre per apropar; al botó verd amb un guió per allunyar la imatge; o en les fletxes verdes per a mapes adjacents.


METAR-TAF: